Elizabeth City Regional Airport & Coast Guard Air Station Elizabeth City US
ICAO: KECG
IATA: ECG
Category: Medium
Scheduled Services: No

Elevation: 12 ft
TransAlt. 18000 ft.

Airport Communications:
NORFOLK APP/DEP:119.55
AIR:34.5
ASOS:118.525
CTAF:120.5
GND:121.9
TWR:120.5
UNICOM:122.95

KECG Zoom In..

If you have problems with the map follow the link
https://www.worldairports.se/pages/airport.php?
ICAO=KECG

Runways:

(A) RW 01 length 4518 ft width 150 ft
---- / hdg 9

(B) RW 10 length 7219 ft width 150 ft
ILS 111.35 / hdg 99

(C) RW 19 length 4518 ft width 150 ft
---- / hdg 189

(D) RW 28 length 7219 ft width 150 ft
---- / hdg 279

Location; KECG
Day. 19 / Time. 12.54 Zulu
* Altimeter: 30.17
* Temperature: 11° c. 51.8°f.
* Wind from: 000° Speed 00 kn.
Dewpoint: 10° c.
Visibility: 7 Statute Miles.
Clouds: Broken 5500 ft.
Clouds: Overcast 9000 ft.

KECG 191254Z 00000KT 7SM BKN055 OVC090 11/10 A3017 RMK AO2 RAE28 SLP215 P0001 T01110100


Wind - Calm.

 
 
jpsmedia.com for Web Design worldairports.se 2018   terms of use